sensor_id;sensor_type;location;lat;lon;timestamp;P1;durP1;ratioP1;P2;durP2;ratioP2
11572;SDS011;5842;52.426;4.886;2023-04-24T00:02:22;2.27;;;1.67;;
11572;SDS011;5842;52.426;4.886;2023-04-24T00:04:52;2.87;;;1.90;;
11572;SDS011;5842;52.426;4.886;2023-04-24T00:07:22;2.73;;;1.70;;
11572;SDS011;5842;52.426;4.886;2023-04-24T00:09:49;2.10;;;1.67;;
11572;SDS011;5842;52.426;4.886;2023-04-24T00:12:16;1.60;;;1.50;;
11572;SDS011;5842;52.426;4.886;2023-04-24T00:14:44;3.23;;;1.53;;
11572;SDS011;5842;52.426;4.886;2023-04-24T00:17:11;1.70;;;1.60;;
11572;SDS011;5842;52.426;4.886;2023-04-24T00:19:40;2.37;;;1.40;;
11572;SDS011;5842;52.426;4.886;2023-04-24T00:22:07;2.43;;;1.37;;
11572;SDS011;5842;52.426;4.886;2023-04-24T00:24:36;1.83;;;1.30;;
11572;SDS011;5842;52.426;4.886;2023-04-24T00:27:03;2.03;;;1.40;;
11572;SDS011;5842;52.426;4.886;2023-04-24T00:29:30;2.00;;;1.30;;
11572;SDS011;5842;52.426;4.886;2023-04-24T00:31:57;2.73;;;1.70;;
11572;SDS011;5842;52.426;4.886;2023-04-24T00:34:25;2.60;;;2.30;;
11572;SDS011;5842;52.426;4.886;2023-04-24T00:36:54;2.43;;;2.10;;
11572;SDS011;5842;52.426;4.886;2023-04-24T00:39:21;3.17;;;2.13;;
11572;SDS011;5842;52.426;4.886;2023-04-24T00:41:49;2.30;;;1.90;;
11572;SDS011;5842;52.426;4.886;2023-04-24T00:44:17;3.30;;;1.73;;
11572;SDS011;5842;52.426;4.886;2023-04-24T00:46:45;3.07;;;1.80;;
11572;SDS011;5842;52.426;4.886;2023-04-24T00:49:16;2.60;;;2.40;;
11572;SDS011;5842;52.426;4.886;2023-04-24T00:51:44;4.80;;;2.30;;
11572;SDS011;5842;52.426;4.886;2023-04-24T00:54:13;3.70;;;2.40;;
11572;SDS011;5842;52.426;4.886;2023-04-24T00:56:41;4.20;;;2.40;;
11572;SDS011;5842;52.426;4.886;2023-04-24T00:59:08;4.10;;;2.70;;
11572;SDS011;5842;52.426;4.886;2023-04-24T01:01:36;3.20;;;2.30;;
11572;SDS011;5842;52.426;4.886;2023-04-24T01:04:03;2.90;;;2.53;;
11572;SDS011;5842;52.426;4.886;2023-04-24T01:06:32;3.20;;;2.30;;
11572;SDS011;5842;52.426;4.886;2023-04-24T01:09:00;4.50;;;3.43;;
11572;SDS011;5842;52.426;4.886;2023-04-24T01:11:29;6.00;;;4.40;;
11572;SDS011;5842;52.426;4.886;2023-04-24T01:13:56;6.50;;;4.77;;
11572;SDS011;5842;52.426;4.886;2023-04-24T01:16:24;4.83;;;4.00;;
11572;SDS011;5842;52.426;4.886;2023-04-24T01:18:51;5.53;;;3.30;;
11572;SDS011;5842;52.426;4.886;2023-04-24T01:21:18;5.17;;;3.00;;
11572;SDS011;5842;52.426;4.886;2023-04-24T01:23:48;3.37;;;2.43;;
11572;SDS011;5842;52.426;4.886;2023-04-24T01:26:16;3.53;;;2.50;;
11572;SDS011;5842;52.426;4.886;2023-04-24T01:28:45;3.10;;;2.50;;
11572;SDS011;5842;52.426;4.886;2023-04-24T01:31:12;6.13;;;2.90;;
11572;SDS011;5842;52.426;4.886;2023-04-24T01:33:40;5.10;;;2.80;;
11572;SDS011;5842;52.426;4.886;2023-04-24T01:36:08;3.63;;;3.03;;
11572;SDS011;5842;52.426;4.886;2023-04-24T01:38:36;4.60;;;3.57;;
11572;SDS011;5842;52.426;4.886;2023-04-24T01:41:05;4.30;;;3.20;;
11572;SDS011;5842;52.426;4.886;2023-04-24T01:43:33;3.20;;;2.40;;
11572;SDS011;5842;52.426;4.886;2023-04-24T01:46:00;2.50;;;1.53;;
11572;SDS011;5842;52.426;4.886;2023-04-24T01:48:27;2.63;;;1.60;;
11572;SDS011;5842;52.426;4.886;2023-04-24T01:50:55;3.83;;;1.50;;
11572;SDS011;5842;52.426;4.886;2023-04-24T01:53:22;2.60;;;1.57;;
11572;SDS011;5842;52.426;4.886;2023-04-24T01:55:50;4.30;;;1.80;;
11572;SDS011;5842;52.426;4.886;2023-04-24T01:58:19;3.93;;;1.70;;
11572;SDS011;5842;52.426;4.886;2023-04-24T02:00:46;6.40;;;1.93;;
11572;SDS011;5842;52.426;4.886;2023-04-24T02:03:13;4.37;;;1.70;;
11572;SDS011;5842;52.426;4.886;2023-04-24T02:05:43;4.53;;;2.07;;
11572;SDS011;5842;52.426;4.886;2023-04-24T02:08:10;5.60;;;2.00;;
11572;SDS011;5842;52.426;4.886;2023-04-24T02:10:37;4.77;;;2.27;;
11572;SDS011;5842;52.426;4.886;2023-04-24T02:13:05;4.17;;;1.87;;
11572;SDS011;5842;52.426;4.886;2023-04-24T02:15:34;5.63;;;1.87;;
11572;SDS011;5842;52.426;4.886;2023-04-24T02:18:01;4.43;;;2.00;;
11572;SDS011;5842;52.426;4.886;2023-04-24T02:20:31;2.00;;;1.60;;
11572;SDS011;5842;52.426;4.886;2023-04-24T02:23:00;3.97;;;1.77;;
11572;SDS011;5842;52.426;4.886;2023-04-24T02:25:27;4.47;;;1.77;;
11572;SDS011;5842;52.426;4.886;2023-04-24T02:27:55;4.97;;;1.93;;
11572;SDS011;5842;52.426;4.886;2023-04-24T02:30:22;3.33;;;1.60;;
11572;SDS011;5842;52.426;4.886;2023-04-24T02:32:51;3.50;;;1.50;;
11572;SDS011;5842;52.426;4.886;2023-04-24T02:35:18;4.03;;;1.60;;
11572;SDS011;5842;52.426;4.886;2023-04-24T02:37:46;2.10;;;1.43;;
11572;SDS011;5842;52.426;4.886;2023-04-24T02:40:13;2.60;;;1.30;;
11572;SDS011;5842;52.426;4.886;2023-04-24T02:42:40;2.40;;;1.23;;
11572;SDS011;5842;52.426;4.886;2023-04-24T02:45:08;4.70;;;1.30;;
11572;SDS011;5842;52.426;4.886;2023-04-24T02:47:35;4.07;;;1.50;;
11572;SDS011;5842;52.426;4.886;2023-04-24T02:50:05;3.40;;;1.30;;
11572;SDS011;5842;52.426;4.886;2023-04-24T02:52:33;1.60;;;1.37;;
11572;SDS011;5842;52.426;4.886;2023-04-24T02:55:00;5.13;;;1.40;;
11572;SDS011;5842;52.426;4.886;2023-04-24T02:57:28;3.00;;;1.30;;
11572;SDS011;5842;52.426;4.886;2023-04-24T02:59:58;3.60;;;1.50;;
11572;SDS011;5842;52.426;4.886;2023-04-24T03:02:25;2.63;;;1.20;;
11572;SDS011;5842;52.426;4.886;2023-04-24T03:04:52;3.23;;;1.10;;
11572;SDS011;5842;52.426;4.886;2023-04-24T03:07:21;1.20;;;1.10;;
11572;SDS011;5842;52.426;4.886;2023-04-24T03:09:49;1.97;;;1.10;;
11572;SDS011;5842;52.426;4.886;2023-04-24T03:12:16;3.40;;;1.10;;
11572;SDS011;5842;52.426;4.886;2023-04-24T03:14:44;2.40;;;1.10;;
11572;SDS011;5842;52.426;4.886;2023-04-24T03:17:11;1.27;;;1.00;;
11572;SDS011;5842;52.426;4.886;2023-04-24T03:19:38;1.30;;;1.10;;
11572;SDS011;5842;52.426;4.886;2023-04-24T03:22:06;2.93;;;1.30;;
11572;SDS011;5842;52.426;4.886;2023-04-24T03:24:35;1.27;;;1.03;;
11572;SDS011;5842;52.426;4.886;2023-04-24T03:27:03;1.40;;;1.30;;
11572;SDS011;5842;52.426;4.886;2023-04-24T03:29:30;2.80;;;1.20;;
11572;SDS011;5842;52.426;4.886;2023-04-24T03:31:57;2.27;;;1.30;;
11572;SDS011;5842;52.426;4.886;2023-04-24T03:34:25;1.70;;;1.20;;
11572;SDS011;5842;52.426;4.886;2023-04-24T03:36:53;1.10;;;1.00;;
11572;SDS011;5842;52.426;4.886;2023-04-24T03:39:20;2.90;;;1.13;;
11572;SDS011;5842;52.426;4.886;2023-04-24T03:41:49;2.10;;;1.30;;
11572;SDS011;5842;52.426;4.886;2023-04-24T03:44:16;1.30;;;1.10;;
11572;SDS011;5842;52.426;4.886;2023-04-24T03:46:43;1.23;;;1.10;;
11572;SDS011;5842;52.426;4.886;2023-04-24T03:49:11;2.17;;;1.20;;
11572;SDS011;5842;52.426;4.886;2023-04-24T03:51:38;2.70;;;1.30;;
11572;SDS011;5842;52.426;4.886;2023-04-24T03:54:05;2.20;;;1.30;;
11572;SDS011;5842;52.426;4.886;2023-04-24T03:56:36;1.53;;;1.37;;
11572;SDS011;5842;52.426;4.886;2023-04-24T03:59:05;2.10;;;1.50;;
11572;SDS011;5842;52.426;4.886;2023-04-24T04:01:32;2.50;;;1.50;;
11572;SDS011;5842;52.426;4.886;2023-04-24T04:04:02;2.70;;;1.80;;
11572;SDS011;5842;52.426;4.886;2023-04-24T04:06:29;2.83;;;1.90;;
11572;SDS011;5842;52.426;4.886;2023-04-24T04:08:57;2.90;;;1.80;;
11572;SDS011;5842;52.426;4.886;2023-04-24T04:11:25;3.00;;;1.90;;
11572;SDS011;5842;52.426;4.886;2023-04-24T04:13:52;4.53;;;2.23;;
11572;SDS011;5842;52.426;4.886;2023-04-24T04:16:22;3.30;;;2.20;;
11572;SDS011;5842;52.426;4.886;2023-04-24T04:18:49;4.87;;;2.13;;
11572;SDS011;5842;52.426;4.886;2023-04-24T04:21:16;4.53;;;2.30;;
11572;SDS011;5842;52.426;4.886;2023-04-24T04:23:44;5.13;;;2.23;;
11572;SDS011;5842;52.426;4.886;2023-04-24T04:26:11;4.47;;;3.13;;
11572;SDS011;5842;52.426;4.886;2023-04-24T04:28:39;2.97;;;1.57;;
11572;SDS011;5842;52.426;4.886;2023-04-24T04:31:06;2.27;;;1.30;;
11572;SDS011;5842;52.426;4.886;2023-04-24T04:33:36;2.53;;;1.47;;
11572;SDS011;5842;52.426;4.886;2023-04-24T04:36:04;3.10;;;1.40;;
11572;SDS011;5842;52.426;4.886;2023-04-24T04:38:32;4.00;;;1.40;;
11572;SDS011;5842;52.426;4.886;2023-04-24T04:41:00;3.80;;;1.40;;
11572;SDS011;5842;52.426;4.886;2023-04-24T04:43:28;2.73;;;1.40;;
11572;SDS011;5842;52.426;4.886;2023-04-24T04:45:57;1.93;;;1.30;;
11572;SDS011;5842;52.426;4.886;2023-04-24T04:48:25;4.10;;;1.60;;
11572;SDS011;5842;52.426;4.886;2023-04-24T04:50:55;3.97;;;1.40;;
11572;SDS011;5842;52.426;4.886;2023-04-24T04:53:22;3.47;;;1.60;;
11572;SDS011;5842;52.426;4.886;2023-04-24T04:55:50;4.43;;;1.50;;
11572;SDS011;5842;52.426;4.886;2023-04-24T04:58:18;2.93;;;2.40;;
11572;SDS011;5842;52.426;4.886;2023-04-24T05:00:46;4.67;;;2.90;;
11572;SDS011;5842;52.426;4.886;2023-04-24T05:03:13;4.13;;;3.10;;
11572;SDS011;5842;52.426;4.886;2023-04-24T05:05:40;2.57;;;2.33;;
11572;SDS011;5842;52.426;4.886;2023-04-24T05:08:09;3.60;;;2.43;;
11572;SDS011;5842;52.426;4.886;2023-04-24T05:10:37;3.07;;;2.30;;
11572;SDS011;5842;52.426;4.886;2023-04-24T05:13:04;5.40;;;2.70;;
11572;SDS011;5842;52.426;4.886;2023-04-24T05:15:31;4.63;;;3.37;;
11572;SDS011;5842;52.426;4.886;2023-04-24T05:17:59;6.13;;;3.73;;
11572;SDS011;5842;52.426;4.886;2023-04-24T05:20:28;7.50;;;5.33;;
11572;SDS011;5842;52.426;4.886;2023-04-24T05:22:56;16.10;;;9.07;;
11572;SDS011;5842;52.426;4.886;2023-04-24T05:25:24;13.93;;;9.13;;
11572;SDS011;5842;52.426;4.886;2023-04-24T05:27:52;13.67;;;8.83;;
11572;SDS011;5842;52.426;4.886;2023-04-24T05:30:19;17.53;;;10.53;;
11572;SDS011;5842;52.426;4.886;2023-04-24T05:32:47;21.70;;;12.77;;
11572;SDS011;5842;52.426;4.886;2023-04-24T05:35:14;25.73;;;13.87;;
11572;SDS011;5842;52.426;4.886;2023-04-24T05:37:41;26.23;;;15.33;;
11572;SDS011;5842;52.426;4.886;2023-04-24T05:40:09;29.87;;;15.67;;
11572;SDS011;5842;52.426;4.886;2023-04-24T05:42:38;26.93;;;16.03;;
11572;SDS011;5842;52.426;4.886;2023-04-24T05:45:06;28.60;;;16.07;;
11572;SDS011;5842;52.426;4.886;2023-04-24T05:47:34;31.83;;;17.53;;
11572;SDS011;5842;52.426;4.886;2023-04-24T05:50:01;30.13;;;16.87;;
11572;SDS011;5842;52.426;4.886;2023-04-24T05:52:29;34.03;;;16.87;;
11572;SDS011;5842;52.426;4.886;2023-04-24T05:54:56;31.77;;;16.97;;
11572;SDS011;5842;52.426;4.886;2023-04-24T05:57:23;24.00;;;15.10;;
11572;SDS011;5842;52.426;4.886;2023-04-24T05:59:53;26.07;;;16.10;;
11572;SDS011;5842;52.426;4.886;2023-04-24T06:02:20;27.83;;;15.63;;
11572;SDS011;5842;52.426;4.886;2023-04-24T06:04:48;24.03;;;14.43;;
11572;SDS011;5842;52.426;4.886;2023-04-24T06:07:15;28.30;;;15.37;;
11572;SDS011;5842;52.426;4.886;2023-04-24T06:09:42;27.40;;;14.57;;
11572;SDS011;5842;52.426;4.886;2023-04-24T06:12:10;25.13;;;14.10;;
11572;SDS011;5842;52.426;4.886;2023-04-24T06:14:37;23.87;;;12.80;;
11572;SDS011;5842;52.426;4.886;2023-04-24T06:17:09;24.93;;;12.67;;
11572;SDS011;5842;52.426;4.886;2023-04-24T06:19:36;20.37;;;12.20;;
11572;SDS011;5842;52.426;4.886;2023-04-24T06:22:03;23.80;;;12.03;;
11572;SDS011;5842;52.426;4.886;2023-04-24T06:24:31;25.40;;;11.73;;
11572;SDS011;5842;52.426;4.886;2023-04-24T06:26:58;22.93;;;11.80;;
11572;SDS011;5842;52.426;4.886;2023-04-24T06:29:26;17.90;;;11.90;;
11572;SDS011;5842;52.426;4.886;2023-04-24T06:31:53;22.43;;;12.97;;
11572;SDS011;5842;52.426;4.886;2023-04-24T06:34:22;31.67;;;13.37;;
11572;SDS011;5842;52.426;4.886;2023-04-24T06:36:50;22.57;;;12.10;;
11572;SDS011;5842;52.426;4.886;2023-04-24T06:39:17;24.60;;;12.37;;
11572;SDS011;5842;52.426;4.886;2023-04-24T06:41:44;23.00;;;11.63;;
11572;SDS011;5842;52.426;4.886;2023-04-24T06:44:12;28.80;;;13.40;;
11572;SDS011;5842;52.426;4.886;2023-04-24T06:46:40;21.37;;;12.47;;
11572;SDS011;5842;52.426;4.886;2023-04-24T06:49:07;21.13;;;12.60;;
11572;SDS011;5842;52.426;4.886;2023-04-24T06:51:36;25.00;;;12.43;;
11572;SDS011;5842;52.426;4.886;2023-04-24T06:54:04;23.97;;;12.77;;
11572;SDS011;5842;52.426;4.886;2023-04-24T06:56:34;24.70;;;11.27;;
11572;SDS011;5842;52.426;4.886;2023-04-24T06:59:01;23.37;;;10.67;;
11572;SDS011;5842;52.426;4.886;2023-04-24T07:01:29;21.20;;;10.90;;
11572;SDS011;5842;52.426;4.886;2023-04-24T07:03:56;20.17;;;10.97;;
11572;SDS011;5842;52.426;4.886;2023-04-24T07:06:24;20.03;;;10.53;;
11572;SDS011;5842;52.426;4.886;2023-04-24T07:08:53;20.50;;;9.90;;
11572;SDS011;5842;52.426;4.886;2023-04-24T07:11:21;17.77;;;10.53;;
11572;SDS011;5842;52.426;4.886;2023-04-24T07:13:48;23.90;;;10.50;;
11572;SDS011;5842;52.426;4.886;2023-04-24T07:16:16;24.10;;;9.50;;
11572;SDS011;5842;52.426;4.886;2023-04-24T07:18:43;21.77;;;8.50;;
11572;SDS011;5842;52.426;4.886;2023-04-24T07:37:19;20.90;;;5.63;;
11572;SDS011;5842;52.426;4.886;2023-04-24T07:39:46;17.87;;;6.33;;
11572;SDS011;5842;52.426;4.886;2023-04-24T07:42:13;17.60;;;4.73;;
11572;SDS011;5842;52.426;4.886;2023-04-24T07:44:41;14.90;;;4.57;;
11572;SDS011;5842;52.426;4.886;2023-04-24T07:47:08;16.37;;;4.40;;
11572;SDS011;5842;52.426;4.886;2023-04-24T07:49:36;13.83;;;4.37;;
11572;SDS011;5842;52.426;4.886;2023-04-24T07:52:03;12.27;;;3.90;;
11572;SDS011;5842;52.426;4.886;2023-04-24T07:54:32;13.23;;;3.90;;
11572;SDS011;5842;52.426;4.886;2023-04-24T07:56:59;13.53;;;4.17;;
11572;SDS011;5842;52.426;4.886;2023-04-24T07:59:27;11.67;;;3.87;;
11572;SDS011;5842;52.426;4.886;2023-04-24T08:01:54;17.33;;;4.03;;
11572;SDS011;5842;52.426;4.886;2023-04-24T08:04:22;11.33;;;3.67;;
11572;SDS011;5842;52.426;4.886;2023-04-24T08:06:49;13.23;;;3.83;;
11572;SDS011;5842;52.426;4.886;2023-04-24T08:09:16;13.60;;;3.70;;
11572;SDS011;5842;52.426;4.886;2023-04-24T08:11:45;21.37;;;4.40;;
11572;SDS011;5842;52.426;4.886;2023-04-24T08:14:13;10.87;;;3.50;;
11572;SDS011;5842;52.426;4.886;2023-04-24T08:16:40;13.17;;;3.83;;
11572;SDS011;5842;52.426;4.886;2023-04-24T08:19:08;14.37;;;3.60;;
11572;SDS011;5842;52.426;4.886;2023-04-24T08:21:35;9.80;;;3.17;;
11572;SDS011;5842;52.426;4.886;2023-04-24T08:24:02;10.87;;;2.83;;
11572;SDS011;5842;52.426;4.886;2023-04-24T08:26:33;8.43;;;2.60;;
11572;SDS011;5842;52.426;4.886;2023-04-24T08:29:02;11.93;;;3.40;;
11572;SDS011;5842;52.426;4.886;2023-04-24T08:31:31;13.13;;;3.30;;
11572;SDS011;5842;52.426;4.886;2023-04-24T08:33:58;8.93;;;3.00;;
11572;SDS011;5842;52.426;4.886;2023-04-24T08:36:26;14.23;;;3.27;;
11572;SDS011;5842;52.426;4.886;2023-04-24T08:38:53;15.67;;;3.70;;
11572;SDS011;5842;52.426;4.886;2023-04-24T08:41:21;9.63;;;3.03;;
11572;SDS011;5842;52.426;4.886;2023-04-24T08:43:51;9.80;;;2.97;;
11572;SDS011;5842;52.426;4.886;2023-04-24T08:46:21;7.47;;;2.73;;
11572;SDS011;5842;52.426;4.886;2023-04-24T08:48:49;9.30;;;3.10;;
11572;SDS011;5842;52.426;4.886;2023-04-24T08:51:17;7.97;;;3.30;;
11572;SDS011;5842;52.426;4.886;2023-04-24T08:53:45;10.57;;;2.97;;
11572;SDS011;5842;52.426;4.886;2023-04-24T08:56:13;9.63;;;2.63;;
11572;SDS011;5842;52.426;4.886;2023-04-24T08:58:41;10.63;;;3.13;;
11572;SDS011;5842;52.426;4.886;2023-04-24T09:01:09;9.23;;;3.00;;
11572;SDS011;5842;52.426;4.886;2023-04-24T09:03:38;12.77;;;3.20;;
11572;SDS011;5842;52.426;4.886;2023-04-24T09:06:06;11.53;;;2.80;;
11572;SDS011;5842;52.426;4.886;2023-04-24T09:08:37;11.27;;;2.80;;
11572;SDS011;5842;52.426;4.886;2023-04-24T09:11:06;6.57;;;2.60;;
11572;SDS011;5842;52.426;4.886;2023-04-24T09:13:33;8.00;;;2.90;;
11572;SDS011;5842;52.426;4.886;2023-04-24T09:16:00;9.30;;;2.90;;
11572;SDS011;5842;52.426;4.886;2023-04-24T09:18:28;12.17;;;3.30;;
11572;SDS011;5842;52.426;4.886;2023-04-24T09:21:00;10.27;;;2.83;;
11572;SDS011;5842;52.426;4.886;2023-04-24T09:23:28;7.40;;;2.33;;
11572;SDS011;5842;52.426;4.886;2023-04-24T09:25:55;12.80;;;3.50;;
11572;SDS011;5842;52.426;4.886;2023-04-24T09:28:27;7.33;;;2.80;;
11572;SDS011;5842;52.426;4.886;2023-04-24T09:31:04;6.27;;;2.40;;
11572;SDS011;5842;52.426;4.886;2023-04-24T09:33:32;9.63;;;2.43;;
11572;SDS011;5842;52.426;4.886;2023-04-24T09:36:01;8.80;;;2.50;;
11572;SDS011;5842;52.426;4.886;2023-04-24T09:38:32;8.20;;;2.63;;
11572;SDS011;5842;52.426;4.886;2023-04-24T09:41:00;7.73;;;2.03;;
11572;SDS011;5842;52.426;4.886;2023-04-24T09:43:28;5.47;;;1.80;;
11572;SDS011;5842;52.426;4.886;2023-04-24T09:45:56;5.40;;;2.07;;
11572;SDS011;5842;52.426;4.886;2023-04-24T09:48:32;4.33;;;1.90;;
11572;SDS011;5842;52.426;4.886;2023-04-24T09:51:01;7.00;;;2.30;;
11572;SDS011;5842;52.426;4.886;2023-04-24T09:53:31;7.17;;;2.10;;
11572;SDS011;5842;52.426;4.886;2023-04-24T09:56:01;4.77;;;1.83;;
11572;SDS011;5842;52.426;4.886;2023-04-24T09:58:29;5.40;;;1.60;;
11572;SDS011;5842;52.426;4.886;2023-04-24T10:00:56;8.80;;;2.30;;
11572;SDS011;5842;52.426;4.886;2023-04-24T10:03:24;4.90;;;1.83;;
11572;SDS011;5842;52.426;4.886;2023-04-24T10:05:57;3.80;;;1.60;;
11572;SDS011;5842;52.426;4.886;2023-04-24T10:08:26;3.40;;;1.53;;
11572;SDS011;5842;52.426;4.886;2023-04-24T10:11:00;3.33;;;1.40;;
11572;SDS011;5842;52.426;4.886;2023-04-24T10:13:27;5.17;;;1.40;;
11572;SDS011;5842;52.426;4.886;2023-04-24T10:15:55;4.50;;;1.57;;
11572;SDS011;5842;52.426;4.886;2023-04-24T10:18:23;4.73;;;1.60;;
11572;SDS011;5842;52.426;4.886;2023-04-24T10:20:51;3.30;;;1.77;;
11572;SDS011;5842;52.426;4.886;2023-04-24T10:23:19;3.03;;;1.40;;
11572;SDS011;5842;52.426;4.886;2023-04-24T10:25:49;4.57;;;2.43;;
11572;SDS011;5842;52.426;4.886;2023-04-24T10:28:18;6.23;;;1.93;;
11572;SDS011;5842;52.426;4.886;2023-04-24T10:30:46;4.50;;;2.00;;
11572;SDS011;5842;52.426;4.886;2023-04-24T10:33:13;8.03;;;2.13;;
11572;SDS011;5842;52.426;4.886;2023-04-24T10:35:42;4.93;;;2.10;;
11572;SDS011;5842;52.426;4.886;2023-04-24T10:38:13;6.70;;;1.90;;
11572;SDS011;5842;52.426;4.886;2023-04-24T10:40:41;5.20;;;2.10;;
11572;SDS011;5842;52.426;4.886;2023-04-24T10:43:10;4.77;;;1.60;;
11572;SDS011;5842;52.426;4.886;2023-04-24T10:45:43;3.77;;;1.47;;
11572;SDS011;5842;52.426;4.886;2023-04-24T10:48:27;4.20;;;1.50;;
11572;SDS011;5842;52.426;4.886;2023-04-24T10:50:54;3.50;;;1.40;;
11572;SDS011;5842;52.426;4.886;2023-04-24T10:53:22;2.90;;;1.20;;
11572;SDS011;5842;52.426;4.886;2023-04-24T10:55:52;5.23;;;1.30;;
11572;SDS011;5842;52.426;4.886;2023-04-24T10:58:35;3.13;;;1.30;;
11572;SDS011;5842;52.426;4.886;2023-04-24T11:01:03;4.00;;;1.20;;
11572;SDS011;5842;52.426;4.886;2023-04-24T11:03:32;1.60;;;0.90;;
11572;SDS011;5842;52.426;4.886;2023-04-24T11:06:00;5.03;;;1.50;;
11572;SDS011;5842;52.426;4.886;2023-04-24T11:08:32;3.70;;;1.30;;
11572;SDS011;5842;52.426;4.886;2023-04-24T11:11:01;5.27;;;1.37;;
11572;SDS011;5842;52.426;4.886;2023-04-24T11:16:23;5.73;;;1.80;;
11572;SDS011;5842;52.426;4.886;2023-04-24T11:18:59;7.03;;;1.63;;
11572;SDS011;5842;52.426;4.886;2023-04-24T11:21:30;7.23;;;1.87;;
11572;SDS011;5842;52.426;4.886;2023-04-24T11:23:58;6.50;;;1.80;;
11572;SDS011;5842;52.426;4.886;2023-04-24T11:26:25;6.13;;;1.60;;
11572;SDS011;5842;52.426;4.886;2023-04-24T11:29:05;2.63;;;1.50;;
11572;SDS011;5842;52.426;4.886;2023-04-24T11:31:38;4.63;;;1.10;;
11572;SDS011;5842;52.426;4.886;2023-04-24T11:34:07;3.03;;;1.20;;
11572;SDS011;5842;52.426;4.886;2023-04-24T11:36:35;2.57;;;1.37;;
11572;SDS011;5842;52.426;4.886;2023-04-24T11:39:02;4.50;;;1.40;;
11572;SDS011;5842;52.426;4.886;2023-04-24T11:41:30;4.97;;;1.60;;
11572;SDS011;5842;52.426;4.886;2023-04-24T11:43:57;8.87;;;1.90;;
11572;SDS011;5842;52.426;4.886;2023-04-24T11:46:28;9.70;;;2.30;;
11572;SDS011;5842;52.426;4.886;2023-04-24T11:48:58;6.80;;;1.90;;
11572;SDS011;5842;52.426;4.886;2023-04-24T11:51:26;6.67;;;2.20;;
11572;SDS011;5842;52.426;4.886;2023-04-24T11:53:55;6.87;;;1.97;;
11572;SDS011;5842;52.426;4.886;2023-04-24T11:56:22;6.97;;;2.30;;
11572;SDS011;5842;52.426;4.886;2023-04-24T11:58:51;8.87;;;2.37;;
11572;SDS011;5842;52.426;4.886;2023-04-24T12:01:19;6.23;;;2.20;;
11572;SDS011;5842;52.426;4.886;2023-04-24T12:03:48;4.53;;;2.10;;
11572;SDS011;5842;52.426;4.886;2023-04-24T12:06:17;6.33;;;2.10;;
11572;SDS011;5842;52.426;4.886;2023-04-24T12:08:45;8.37;;;2.50;;
11572;SDS011;5842;52.426;4.886;2023-04-24T12:11:14;8.47;;;2.90;;
11572;SDS011;5842;52.426;4.886;2023-04-24T12:13:42;7.73;;;2.40;;
11572;SDS011;5842;52.426;4.886;2023-04-24T12:16:10;8.20;;;2.90;;
11572;SDS011;5842;52.426;4.886;2023-04-24T12:18:41;6.80;;;2.37;;
11572;SDS011;5842;52.426;4.886;2023-04-24T12:21:20;5.90;;;2.50;;
11572;SDS011;5842;52.426;4.886;2023-04-24T12:23:50;11.97;;;2.97;;
11572;SDS011;5842;52.426;4.886;2023-04-24T12:26:17;12.67;;;3.23;;
11572;SDS011;5842;52.426;4.886;2023-04-24T12:28:46;13.77;;;3.53;;
11572;SDS011;5842;52.426;4.886;2023-04-24T12:31:14;13.40;;;3.50;;
11572;SDS011;5842;52.426;4.886;2023-04-24T12:33:42;10.90;;;3.53;;
11572;SDS011;5842;52.426;4.886;2023-04-24T12:36:10;10.83;;;3.10;;
11572;SDS011;5842;52.426;4.886;2023-04-24T12:38:43;14.30;;;3.53;;
11572;SDS011;5842;52.426;4.886;2023-04-24T12:41:12;9.90;;;3.07;;
11572;SDS011;5842;52.426;4.886;2023-04-24T12:43:50;11.63;;;3.03;;
11572;SDS011;5842;52.426;4.886;2023-04-24T12:46:18;10.10;;;3.10;;
11572;SDS011;5842;52.426;4.886;2023-04-24T12:48:45;14.20;;;3.67;;
11572;SDS011;5842;52.426;4.886;2023-04-24T12:51:12;11.00;;;3.03;;
11572;SDS011;5842;52.426;4.886;2023-04-24T12:53:41;12.63;;;3.37;;
11572;SDS011;5842;52.426;4.886;2023-04-24T12:56:08;12.17;;;3.50;;
11572;SDS011;5842;52.426;4.886;2023-04-24T12:58:36;13.33;;;3.70;;
11572;SDS011;5842;52.426;4.886;2023-04-24T13:01:03;14.60;;;3.80;;
11572;SDS011;5842;52.426;4.886;2023-04-24T13:03:30;13.57;;;3.97;;
11572;SDS011;5842;52.426;4.886;2023-04-24T13:05:58;16.70;;;4.13;;
11572;SDS011;5842;52.426;4.886;2023-04-24T13:08:25;11.00;;;3.40;;
11572;SDS011;5842;52.426;4.886;2023-04-24T13:10:54;13.17;;;3.73;;
11572;SDS011;5842;52.426;4.886;2023-04-24T13:13:21;12.40;;;3.63;;
11572;SDS011;5842;52.426;4.886;2023-04-24T13:15:49;9.13;;;3.53;;
11572;SDS011;5842;52.426;4.886;2023-04-24T13:18:16;10.17;;;3.83;;
11572;SDS011;5842;52.426;4.886;2023-04-24T13:20:43;8.60;;;3.50;;
11572;SDS011;5842;52.426;4.886;2023-04-24T13:23:12;8.47;;;3.13;;
11572;SDS011;5842;52.426;4.886;2023-04-24T13:25:41;8.17;;;3.00;;
11572;SDS011;5842;52.426;4.886;2023-04-24T13:28:10;8.47;;;3.00;;
11572;SDS011;5842;52.426;4.886;2023-04-24T13:30:38;8.80;;;3.13;;
11572;SDS011;5842;52.426;4.886;2023-04-24T13:33:06;11.77;;;3.50;;
11572;SDS011;5842;52.426;4.886;2023-04-24T13:35:33;8.27;;;3.07;;
11572;SDS011;5842;52.426;4.886;2023-04-24T13:38:01;13.43;;;3.60;;
11572;SDS011;5842;52.426;4.886;2023-04-24T13:40:30;11.97;;;3.40;;
11572;SDS011;5842;52.426;4.886;2023-04-24T13:42:58;14.30;;;3.70;;
11572;SDS011;5842;52.426;4.886;2023-04-24T13:45:27;10.37;;;3.40;;
11572;SDS011;5842;52.426;4.886;2023-04-24T13:47:57;14.50;;;3.80;;
11572;SDS011;5842;52.426;4.886;2023-04-24T13:50:24;10.30;;;2.93;;
11572;SDS011;5842;52.426;4.886;2023-04-24T13:52:52;9.33;;;3.20;;
11572;SDS011;5842;52.426;4.886;2023-04-24T13:55:19;8.80;;;2.83;;
11572;SDS011;5842;52.426;4.886;2023-04-24T13:57:47;7.80;;;2.90;;
11572;SDS011;5842;52.426;4.886;2023-04-24T14:00:14;15.83;;;3.63;;
11572;SDS011;5842;52.426;4.886;2023-04-24T14:02:43;8.63;;;3.27;;
11572;SDS011;5842;52.426;4.886;2023-04-24T14:05:11;13.20;;;3.23;;
11572;SDS011;5842;52.426;4.886;2023-04-24T14:07:39;18.30;;;3.80;;
11572;SDS011;5842;52.426;4.886;2023-04-24T14:10:06;9.80;;;3.27;;
11572;SDS011;5842;52.426;4.886;2023-04-24T14:12:34;15.07;;;3.80;;
11572;SDS011;5842;52.426;4.886;2023-04-24T14:15:02;10.00;;;3.70;;
11572;SDS011;5842;52.426;4.886;2023-04-24T14:17:29;15.37;;;4.40;;
11572;SDS011;5842;52.426;4.886;2023-04-24T14:19:58;12.23;;;4.03;;
11572;SDS011;5842;52.426;4.886;2023-04-24T14:22:26;11.63;;;3.60;;
11572;SDS011;5842;52.426;4.886;2023-04-24T14:24:54;13.27;;;4.27;;
11572;SDS011;5842;52.426;4.886;2023-04-24T14:27:21;15.53;;;4.43;;
11572;SDS011;5842;52.426;4.886;2023-04-24T14:29:49;13.90;;;4.20;;
11572;SDS011;5842;52.426;4.886;2023-04-24T14:32:17;16.20;;;3.80;;
11572;SDS011;5842;52.426;4.886;2023-04-24T14:34:44;9.87;;;3.33;;
11572;SDS011;5842;52.426;4.886;2023-04-24T14:37:13;11.27;;;3.20;;
11572;SDS011;5842;52.426;4.886;2023-04-24T14:39:41;9.10;;;3.10;;
11572;SDS011;5842;52.426;4.886;2023-04-24T14:42:08;11.00;;;3.43;;
11572;SDS011;5842;52.426;4.886;2023-04-24T14:44:36;8.60;;;3.47;;
11572;SDS011;5842;52.426;4.886;2023-04-24T14:47:03;11.90;;;3.80;;
11572;SDS011;5842;52.426;4.886;2023-04-24T14:49:31;14.20;;;4.43;;
11572;SDS011;5842;52.426;4.886;2023-04-24T14:51:58;12.47;;;3.87;;
11572;SDS011;5842;52.426;4.886;2023-04-24T14:54:29;9.63;;;4.07;;
11572;SDS011;5842;52.426;4.886;2023-04-24T14:56:57;17.33;;;4.70;;
11572;SDS011;5842;52.426;4.886;2023-04-24T14:59:26;13.13;;;4.33;;
11572;SDS011;5842;52.426;4.886;2023-04-24T15:01:54;13.23;;;4.53;;
11572;SDS011;5842;52.426;4.886;2023-04-24T15:04:22;13.90;;;4.50;;
11572;SDS011;5842;52.426;4.886;2023-04-24T15:06:50;13.47;;;4.00;;
11572;SDS011;5842;52.426;4.886;2023-04-24T15:09:18;14.30;;;3.80;;
11572;SDS011;5842;52.426;4.886;2023-04-24T15:11:48;9.80;;;3.40;;
11572;SDS011;5842;52.426;4.886;2023-04-24T15:14:16;9.83;;;3.10;;
11572;SDS011;5842;52.426;4.886;2023-04-24T15:16:43;9.70;;;3.30;;
11572;SDS011;5842;52.426;4.886;2023-04-24T15:19:13;13.73;;;3.23;;
11572;SDS011;5842;52.426;4.886;2023-04-24T15:21:40;14.83;;;3.10;;